Lower Pig Pen, North Carolina
Current Conditions -  °F | °C
As of 6:55 PM on Saturday 25 Oct 2014 (Local Time) from K0A9 Reporting Station
Overcast Overcast  
Wind Chill: 59°   Ceiling: 4100
Heat Index: 59°   Visibility: 10mi
Dew Point: 48°   Wind: 0mph
Humidity: 67%   Direction: NA
Pressure: 30.01"   Gusts: NA
Location:  35.955°N, 82.2044°W
Report Text: K0A9 252255Z AUTO 00000KT 10SM OVC041 15/09 A3001 RMK
Loading
Personal Weather Stations






























Interactive Weather Map
Tropical Storm Tracking
New forecast layout! Learn more

10-Day Weather Forecast

Advertisements
Track Severe Weather on mobile